createdAt,value
2019-04-28T00:01:53.721Z,15.45
2019-04-28T00:04:27.095Z,19.27
2019-04-28T00:07:01.872Z,23.27
2019-04-28T00:09:35.461Z,22.45
2019-04-28T00:12:09.146Z,21.00
2019-04-28T00:14:42.208Z,22.85
2019-04-28T00:17:15.727Z,21.85
2019-04-28T00:19:51.360Z,21.60
2019-04-28T00:22:37.286Z,26.15
2019-04-28T00:25:36.070Z,22.17
2019-04-28T00:28:09.463Z,26.82
2019-04-28T00:30:42.963Z,22.82
2019-04-28T00:33:16.399Z,29.60
2019-04-28T00:35:49.233Z,26.40
2019-04-28T00:38:23.473Z,23.52
2019-04-28T00:40:59.573Z,28.15
2019-04-28T00:43:33.414Z,35.00
2019-04-28T00:46:10.802Z,32.88
2019-04-28T00:48:44.742Z,26.80
2019-04-28T00:51:17.896Z,37.73
2019-04-28T00:53:51.199Z,28.02
2019-04-28T00:56:24.213Z,31.60
2019-04-28T00:58:58.322Z,29.57
2019-04-28T01:01:38.056Z,37.80
2019-04-28T01:04:11.871Z,31.52
2019-04-28T01:06:45.813Z,35.73
2019-04-28T01:09:22.053Z,32.85
2019-04-28T01:11:55.449Z,33.23
2019-04-28T01:14:28.422Z,44.33
2019-04-28T01:17:09.798Z,35.83
2019-04-28T01:19:46.359Z,35.95
2019-04-28T01:22:20.131Z,40.17
2019-04-28T01:24:53.807Z,33.90
2019-04-28T01:27:50.527Z,36.08
2019-04-28T01:30:45.864Z,35.63
2019-04-28T01:33:41.699Z,31.35
2019-04-28T01:36:14.823Z,38.28
2019-04-28T01:38:49.941Z,40.50
2019-04-28T01:41:23.207Z,33.33
2019-04-28T01:43:56.180Z,32.45
2019-04-28T01:46:32.254Z,34.10
2019-04-28T01:49:05.651Z,30.55
2019-04-28T01:51:38.937Z,29.90
2019-04-28T01:54:11.728Z,33.02
2019-04-28T01:56:45.078Z,34.92
2019-04-28T01:59:18.027Z,29.02
2019-04-28T02:01:50.999Z,37.95
2019-04-28T02:04:24.156Z,25.52
2019-04-28T02:06:59.812Z,25.30
2019-04-28T02:09:33.545Z,30.30
2019-04-28T02:12:06.518Z,31.85
2019-04-28T02:14:40.529Z,30.05
2019-04-28T02:17:14.528Z,22.15
2019-04-28T02:19:48.395Z,24.25
2019-04-28T02:22:35.484Z,22.10
2019-04-28T02:25:09.941Z,26.80
2019-04-28T02:27:43.491Z,23.75
2019-04-28T02:30:17.489Z,25.20
2019-04-28T02:32:51.911Z,28.07
2019-04-28T02:35:25.946Z,30.82
2019-04-28T02:38:00.168Z,30.15
2019-04-28T02:40:33.771Z,25.55
2019-04-28T02:43:06.850Z,25.37
2019-04-28T02:45:41.359Z,19.87
2019-04-28T02:48:21.204Z,25.68
2019-04-28T02:51:02.832Z,18.15
2019-04-28T02:53:40.893Z,17.07
2019-04-28T02:56:14.647Z,23.52
2019-04-28T02:58:47.656Z,22.13
2019-04-28T03:01:26.105Z,22.30
2019-04-28T03:03:55.742Z,19.35
2019-04-28T03:06:30.661Z,24.65
2019-04-28T03:09:04.464Z,15.95
2019-04-28T03:11:38.285Z,25.37
2019-04-28T03:14:11.580Z,18.90
2019-04-28T03:16:44.970Z,15.90
2019-04-28T03:19:17.845Z,26.95
2019-04-28T03:21:51.141Z,25.92
2019-04-28T03:24:24.297Z,19.92
2019-04-28T03:27:16.079Z,23.18
2019-04-28T03:29:57.052Z,24.72
2019-04-28T03:32:45.251Z,16.17
2019-04-28T03:35:13.041Z,17.70
2019-04-28T03:37:43.606Z,17.85
2019-04-28T03:40:16.988Z,16.82
2019-04-28T03:42:51.349Z,18.75
2019-04-28T03:45:30.671Z,32.38
2019-04-28T03:48:04.061Z,23.10
2019-04-28T03:50:37.415Z,17.02
2019-04-28T03:53:11.866Z,18.27
2019-04-28T03:55:47.491Z,18.75
2019-04-28T03:58:23.793Z,20.80
2019-04-28T04:00:56.848Z,19.98
2019-04-28T04:03:30.560Z,20.88
2019-04-28T04:06:04.021Z,24.07
2019-04-28T04:08:40.549Z,18.70
2019-04-28T04:11:38.193Z,18.77
2019-04-28T04:14:36.817Z,24.95
2019-04-28T04:17:21.262Z,22.15
2019-04-28T04:19:54.714Z,12.28
2019-04-28T04:22:27.837Z,12.47
2019-04-28T04:25:01.346Z,18.67
2019-04-28T04:27:35.364Z,13.62
2019-04-28T04:30:10.852Z,14.10
2019-04-28T04:32:44.459Z,19.48
2019-04-28T04:35:17.500Z,16.73
2019-04-28T04:37:50.502Z,18.10
2019-04-28T04:40:23.774Z,14.98
2019-04-28T04:42:57.587Z,17.40
2019-04-28T04:45:31.104Z,10.23
2019-04-28T04:48:05.375Z,19.62
2019-04-28T04:50:41.185Z,13.05
2019-04-28T04:53:14.765Z,11.80
2019-04-28T04:55:50.719Z,9.90
2019-04-28T04:58:23.594Z,15.85
2019-04-28T05:01:16.123Z,13.10
2019-04-28T05:03:51.276Z,19.20
2019-04-28T05:06:33.404Z,17.92
2019-04-28T05:09:09.988Z,11.03
2019-04-28T05:11:43.853Z,15.50
2019-04-28T05:14:17.330Z,20.80
2019-04-28T05:16:51.082Z,19.57
2019-04-28T05:19:26.719Z,13.40
2019-04-28T05:22:00.125Z,18.55
2019-04-28T05:24:46.349Z,17.27
2019-04-28T05:27:22.161Z,14.07
2019-04-28T05:29:56.864Z,11.78
2019-04-28T05:32:42.483Z,9.15
2019-04-28T05:35:10.244Z,16.25
2019-04-28T05:37:43.909Z,16.93
2019-04-28T05:40:17.418Z,11.60
2019-04-28T05:43:00.863Z,15.32
2019-04-28T05:45:34.863Z,10.32
2019-04-28T05:48:09.533Z,11.30
2019-04-28T05:50:54.252Z,9.93
2019-04-28T05:53:43.491Z,10.55
2019-04-28T05:56:30.778Z,17.87
2019-04-28T05:59:10.592Z,20.00
2019-04-28T06:02:00.631Z,14.13
2019-04-28T06:04:34.416Z,19.25
2019-04-28T06:07:36.156Z,11.55
2019-04-28T06:10:10.502Z,15.00
2019-04-28T06:12:43.352Z,13.00
2019-04-28T06:15:16.803Z,19.52
2019-04-28T06:17:50.357Z,14.38
2019-04-28T06:20:23.683Z,13.00
2019-04-28T06:22:57.047Z,20.37
2019-04-28T06:25:31.392Z,18.50
2019-04-28T06:28:05.057Z,13.00
2019-04-28T06:30:38.365Z,15.30
2019-04-28T06:33:11.479Z,15.40
2019-04-28T06:35:44.858Z,16.20
2019-04-28T06:38:18.255Z,21.57
2019-04-28T06:40:51.159Z,21.27
2019-04-28T06:43:24.134Z,10.40
2019-04-28T06:45:56.594Z,16.05
2019-04-28T06:48:30.102Z,14.15
2019-04-28T06:51:03.310Z,16.07
2019-04-28T06:53:37.146Z,13.53
2019-04-28T06:56:10.739Z,11.00
2019-04-28T06:58:43.836Z,16.62
2019-04-28T07:01:17.495Z,21.93
2019-04-28T07:03:51.107Z,14.87
2019-04-28T07:06:24.512Z,18.17
2019-04-28T07:08:57.897Z,15.03
2019-04-28T07:11:30.941Z,13.60
2019-04-28T07:14:06.041Z,13.25
2019-04-28T07:16:39.629Z,12.03
2019-04-28T07:19:13.012Z,15.00
2019-04-28T07:21:54.924Z,11.95
2019-04-28T07:24:27.889Z,15.00
2019-04-28T07:27:00.904Z,14.75
2019-04-28T07:29:34.410Z,13.05
2019-04-28T07:32:08.799Z,12.65
2019-04-28T07:34:42.456Z,16.85
2019-04-28T07:37:15.490Z,18.98
2019-04-28T07:39:48.840Z,20.97
2019-04-28T07:42:22.403Z,15.45
2019-04-28T07:44:56.020Z,19.10
2019-04-28T07:47:29.625Z,18.02
2019-04-28T07:50:02.958Z,22.07
2019-04-28T07:52:43.560Z,26.42
2019-04-28T07:55:16.688Z,21.37
2019-04-28T07:57:50.150Z,16.40
2019-04-28T08:00:27.970Z,20.00
2019-04-28T08:03:01.879Z,25.25
2019-04-28T08:05:34.967Z,17.62
2019-04-28T08:08:08.456Z,22.00
2019-04-28T08:10:41.794Z,16.97
2019-04-28T08:13:14.937Z,16.97
2019-04-28T08:15:48.541Z,19.42
2019-04-28T08:18:22.370Z,14.90
2019-04-28T08:20:55.689Z,24.57
2019-04-28T08:23:29.469Z,24.27
2019-04-28T08:26:02.569Z,22.75
2019-04-28T08:28:35.249Z,18.45
2019-04-28T08:31:10.956Z,16.23
2019-04-28T08:34:02.191Z,15.10
2019-04-28T08:36:29.226Z,21.40
2019-04-28T08:39:04.361Z,15.85
2019-04-28T08:41:39.315Z,17.70
2019-04-28T08:44:13.022Z,14.78
2019-04-28T08:46:46.112Z,11.43
2019-04-28T08:49:19.817Z,16.07
2019-04-28T08:51:52.904Z,16.27
2019-04-28T08:54:26.388Z,15.80
2019-04-28T08:56:59.154Z,20.08
2019-04-28T08:59:32.589Z,12.43
2019-04-28T09:02:07.109Z,17.00
2019-04-28T09:04:40.693Z,22.80
2019-04-28T09:07:13.799Z,14.25
2019-04-28T09:09:48.332Z,15.33
2019-04-28T09:12:21.748Z,18.33
2019-04-28T09:14:55.024Z,21.37
2019-04-28T09:17:28.096Z,18.73
2019-04-28T09:20:01.167Z,16.80
2019-04-28T09:22:33.881Z,22.37
2019-04-28T09:25:07.730Z,23.52
2019-04-28T09:27:41.505Z,16.27
2019-04-28T09:30:15.286Z,16.07
2019-04-28T09:32:48.724Z,16.27
2019-04-28T09:35:22.389Z,17.10
2019-04-28T09:37:55.521Z,14.40
2019-04-28T09:40:30.568Z,17.12
2019-04-28T09:43:31.782Z,19.17
2019-04-28T09:46:09.592Z,15.60
2019-04-28T09:48:42.825Z,13.83
2019-04-28T09:51:15.828Z,16.50
2019-04-28T09:53:48.865Z,18.03
2019-04-28T09:56:21.826Z,12.40
2019-04-28T09:58:55.239Z,13.90
2019-04-28T10:01:28.339Z,16.10
2019-04-28T10:04:02.323Z,15.90
2019-04-28T10:06:35.784Z,14.73
2019-04-28T10:09:09.320Z,20.90
2019-04-28T10:11:51.348Z,27.20
2019-04-28T10:14:25.464Z,21.30
2019-04-28T10:16:58.432Z,17.42
2019-04-28T10:19:33.555Z,17.00
2019-04-28T10:22:06.534Z,16.07
2019-04-28T10:24:39.359Z,11.83
2019-04-28T10:27:12.711Z,12.70
2019-04-28T10:29:46.758Z,12.67
2019-04-28T10:32:20.333Z,18.97
2019-04-28T10:34:54.957Z,16.03
2019-04-28T10:37:28.432Z,15.83
2019-04-28T10:40:06.636Z,11.47
2019-04-28T10:42:39.456Z,15.13
2019-04-28T10:45:15.477Z,13.53
2019-04-28T10:47:51.011Z,16.10
2019-04-28T10:50:27.398Z,16.80
2019-04-28T10:53:00.427Z,11.48
2019-04-28T10:55:34.849Z,14.98
2019-04-28T10:58:09.580Z,13.85
2019-04-28T11:00:43.411Z,20.90
2019-04-28T11:03:16.861Z,17.80
2019-04-28T11:05:50.170Z,13.35
2019-04-28T11:08:31.800Z,16.67
2019-04-28T11:11:11.392Z,10.88
2019-04-28T11:13:45.421Z,16.07
2019-04-28T11:16:21.726Z,16.52
2019-04-28T11:18:55.646Z,21.82
2019-04-28T11:21:28.791Z,22.30
2019-04-28T11:24:02.392Z,22.20
2019-04-28T11:26:36.355Z,27.98
2019-04-28T11:29:10.114Z,26.90
2019-04-28T11:31:42.406Z,20.92
2019-04-28T11:34:21.856Z,22.52
2019-04-28T11:36:55.648Z,23.87
2019-04-28T11:39:31.665Z,18.87
2019-04-28T11:42:05.064Z,25.57
2019-04-28T11:44:38.163Z,24.10
2019-04-28T11:47:14.620Z,25.88
2019-04-28T11:49:48.410Z,21.40
2019-04-28T11:52:21.129Z,21.37
2019-04-28T18:37:46.608Z,12.55
2019-04-28T18:40:42.849Z,11.70
2019-04-28T18:43:47.545Z,10.85
2019-04-28T18:46:27.458Z,10.70
2019-04-28T18:49:00.715Z,11.38
2019-04-28T18:56:06.708Z,9.93
2019-04-28T18:58:48.890Z,13.20
2019-04-28T19:01:55.206Z,17.05
2019-04-28T19:04:29.757Z,12.70
2019-04-28T21:13:08.406Z,14.95
2019-04-28T21:15:43.129Z,17.48
2019-04-28T21:18:16.280Z,18.27
2019-04-28T21:20:49.214Z,14.40
2019-04-28T21:23:23.200Z,18.87
2019-04-28T21:25:56.396Z,18.15
2019-04-28T21:28:30.288Z,15.00
2019-04-28T21:31:03.514Z,14.40
2019-04-28T21:33:37.014Z,18.00
2019-04-28T21:36:11.281Z,17.67
2019-04-28T21:38:47.687Z,18.35
2019-04-28T21:41:21.681Z,19.57
2019-04-28T21:44:17.237Z,27.20
2019-04-28T21:46:55.230Z,20.57
2019-04-28T21:49:30.102Z,22.58
2019-04-28T21:52:03.220Z,24.95
2019-04-28T21:54:36.156Z,26.05
2019-04-28T21:57:08.976Z,23.90
2019-04-28T21:59:42.936Z,25.17
2019-04-28T22:02:15.682Z,24.67
2019-04-28T22:04:48.128Z,25.75
2019-04-28T22:07:22.796Z,22.55
2019-04-28T22:09:56.326Z,21.73
2019-04-28T22:12:29.611Z,21.85
2019-04-28T22:15:03.131Z,26.85
2019-04-28T22:17:36.620Z,23.35
2019-04-28T22:20:10.464Z,24.75
2019-04-28T22:22:43.609Z,22.87
2019-04-28T22:25:19.584Z,21.20
2019-04-28T22:27:51.882Z,22.75
2019-04-28T22:30:25.012Z,21.33
2019-04-28T22:32:57.729Z,29.07
2019-04-28T22:35:30.838Z,22.77
2019-04-28T22:38:03.472Z,27.10
2019-04-28T22:40:36.078Z,30.45
2019-04-28T22:43:09.494Z,28.83
2019-04-28T22:45:43.551Z,28.65
2019-04-28T22:48:20.866Z,32.95
2019-04-28T22:50:53.830Z,26.95
2019-04-28T22:53:32.899Z,28.83
2019-04-28T22:56:25.638Z,35.28
2019-04-28T22:59:05.463Z,31.52
2019-04-28T23:01:41.623Z,25.32
2019-04-28T23:04:32.933Z,26.25
2019-04-28T23:07:06.529Z,33.70
2019-04-28T23:09:40.050Z,32.42
2019-04-28T23:12:13.202Z,34.45
2019-04-28T23:14:47.016Z,34.10
2019-04-28T23:17:21.275Z,31.20
2019-04-28T23:19:54.990Z,31.50
2019-04-28T23:22:46.649Z,28.47
2019-04-28T23:25:12.334Z,26.93
2019-04-28T23:27:45.311Z,28.55
2019-04-28T23:30:38.283Z,28.15
2019-04-28T23:33:11.136Z,31.15
2019-04-28T23:35:44.641Z,24.50
2019-04-28T23:38:17.699Z,29.60
2019-04-28T23:41:02.784Z,23.75
2019-04-28T23:43:36.084Z,23.70
2019-04-28T23:46:09.082Z,24.55
2019-04-28T23:48:42.457Z,21.02
2019-04-28T23:51:24.063Z,29.40
2019-04-28T23:54:00.141Z,33.15
2019-04-28T23:56:33.450Z,25.77
2019-04-28T23:59:05.755Z,27.05
